createdAt,value
2016-09-10T13:24:29.213Z,6184
2016-09-10T13:24:49.809Z,6172
2016-09-10T13:25:10.659Z,6156
2016-09-10T13:25:31.323Z,6152
2016-09-10T13:25:51.967Z,6148
2016-09-10T13:26:12.901Z,6144
2016-09-10T13:26:33.456Z,6136
2016-09-10T13:26:54.071Z,6040
2016-09-10T13:27:14.762Z,6040
2016-09-10T13:27:35.604Z,6036
2016-09-10T13:27:56.223Z,6032
2016-09-10T13:28:18.024Z,6028
2016-09-10T13:28:38.663Z,6008
2016-09-10T13:28:59.227Z,6000
2016-09-10T13:29:19.996Z,5988
2016-09-10T13:29:40.899Z,5972
2016-09-10T13:30:01.618Z,5972
2016-09-10T13:30:22.407Z,5964
2016-09-10T13:30:43.152Z,5956
2016-09-10T13:31:03.704Z,5956
2016-09-10T13:31:24.495Z,5948
2016-09-10T13:31:45.186Z,5944
2016-09-10T13:32:06.693Z,5932
2016-09-10T13:32:27.487Z,5928
2016-09-10T13:32:48.222Z,5936
2016-09-10T13:33:08.788Z,5924
2016-09-10T13:33:29.781Z,5920
2016-09-10T13:33:50.393Z,5920
2016-09-10T13:34:10.953Z,5920
2016-09-10T13:34:31.550Z,5928
2016-09-10T13:34:52.178Z,5928
2016-09-10T13:35:13.446Z,5936
2016-09-10T13:35:34.351Z,5940
2016-09-10T13:35:54.996Z,5948
2016-09-10T13:36:15.579Z,5952
2016-09-10T13:36:36.121Z,5928
2016-09-10T13:36:56.698Z,5952
2016-09-10T13:37:17.292Z,5972
2016-09-10T13:37:38.052Z,5992
2016-09-10T13:37:58.677Z,6000
2016-09-10T13:38:19.354Z,6004
2016-09-10T13:38:40.045Z,6008
2016-09-10T13:39:00.785Z,6000
2016-09-10T13:39:21.459Z,5992
2016-09-10T13:39:42.079Z,5968
2016-09-10T13:40:03.245Z,5944
2016-09-10T13:40:24.025Z,5916
2016-09-10T13:40:44.767Z,5896
2016-09-10T13:41:05.368Z,5868
2016-09-10T13:41:25.985Z,5844
2016-09-10T13:41:46.599Z,5820
2016-09-10T13:42:07.343Z,5808
2016-09-10T13:42:27.939Z,5800
2016-09-10T13:42:48.577Z,5788
2016-09-10T13:43:09.351Z,5780
2016-09-10T13:43:29.988Z,5768
2016-09-10T13:43:50.597Z,5748
2016-09-10T13:44:11.279Z,5736
2016-09-10T13:44:32.262Z,5720
2016-09-10T13:44:52.828Z,5716
2016-09-10T13:45:13.416Z,5712
2016-09-10T13:45:34.135Z,5696
2016-09-10T13:45:55.188Z,5668
2016-09-10T13:46:16.394Z,5660
2016-09-10T13:46:37.555Z,5644
2016-09-10T13:46:58.702Z,5604
2016-09-10T13:47:20.225Z,5596
2016-09-10T13:47:41.659Z,5588
2016-09-10T13:48:02.974Z,5564
2016-09-10T13:48:24.101Z,5544
2016-09-10T13:48:45.750Z,5532
2016-09-10T13:49:07.075Z,5512
2016-09-10T13:49:28.507Z,5492
2016-09-10T13:49:49.888Z,5484
2016-09-10T13:50:11.378Z,5476
2016-09-10T13:50:33.292Z,5460
2016-09-10T13:50:54.352Z,5452
2016-09-10T13:51:15.595Z,5452
2016-09-10T13:51:36.625Z,5448
2016-09-10T13:51:57.456Z,5440
2016-09-10T13:52:18.338Z,5428
2016-09-10T13:52:39.380Z,5432
2016-09-10T13:53:00.823Z,5424
2016-09-10T13:53:21.936Z,5408
2016-09-10T13:53:42.971Z,5404
2016-09-10T13:54:04.153Z,5408
2016-09-10T13:54:25.609Z,5396
2016-09-10T13:54:46.853Z,5380
2016-09-10T13:55:08.220Z,5364
2016-09-10T13:55:29.449Z,5356
2016-09-10T13:55:51.113Z,5352
2016-09-10T13:56:12.277Z,5344
2016-09-10T13:56:33.102Z,5340
2016-09-10T13:56:54.133Z,5336
2016-09-10T13:57:15.688Z,5320
2016-09-10T13:57:36.582Z,5312
2016-09-10T13:57:57.758Z,5320
2016-09-10T13:58:19.243Z,5324
2016-09-10T13:58:40.282Z,5336
2016-09-10T13:59:01.534Z,5324
2016-09-10T13:59:22.637Z,5332
2016-09-10T13:59:43.928Z,5332
2016-09-10T14:00:05.274Z,5332
2016-09-10T14:00:26.489Z,5328
2016-09-10T14:00:47.482Z,5328
2016-09-10T14:01:08.953Z,5312
2016-09-10T14:01:30.263Z,5308
2016-09-10T14:01:51.187Z,5300
2016-09-10T14:02:12.290Z,5300
2016-09-10T14:02:33.531Z,5280
2016-09-10T14:02:54.558Z,5268
2016-09-10T14:03:16.017Z,5260
2016-09-10T14:03:37.403Z,5244
2016-09-10T14:03:58.325Z,5244
2016-09-10T14:04:19.672Z,5240
2016-09-10T14:04:40.620Z,5228
2016-09-10T14:05:02.644Z,5212
2016-09-10T14:05:23.970Z,5200
2016-09-10T14:05:45.129Z,5188
2016-09-10T14:06:06.142Z,5188
2016-09-10T14:06:27.374Z,5180
2016-09-10T14:06:48.316Z,5172
2016-09-10T14:07:09.426Z,5156
2016-09-10T14:07:30.632Z,5176
2016-09-10T14:07:52.232Z,5164
2016-09-10T14:08:13.229Z,5148
2016-09-10T14:08:34.709Z,5140
2016-09-10T14:08:56.097Z,5136
2016-09-10T14:09:17.621Z,5120
2016-09-10T14:09:38.934Z,5120
2016-09-10T14:10:00.330Z,5100
2016-09-10T14:10:22.496Z,5088
2016-09-10T14:10:43.648Z,5084
2016-09-10T14:11:04.956Z,5080
2016-09-10T14:11:26.854Z,5076
2016-09-10T14:11:48.700Z,5076
2016-09-10T14:12:10.251Z,5076
2016-09-10T14:12:31.074Z,5080
2016-09-10T14:12:51.796Z,5092
2016-09-10T14:13:13.266Z,5084
2016-09-10T14:13:34.733Z,5084
2016-09-10T14:13:55.944Z,5080
2016-09-10T14:14:17.104Z,5076
2016-09-10T14:14:38.682Z,5052
2016-09-10T14:15:01.622Z,5044
2016-09-10T14:15:22.973Z,5036
2016-09-10T14:15:43.978Z,5016
2016-09-10T14:16:04.983Z,5000
2016-09-10T14:16:26.069Z,4988
2016-09-10T14:16:47.509Z,4968
2016-09-10T14:17:08.659Z,4968
2016-09-10T14:17:30.083Z,4924
2016-09-10T14:17:51.148Z,4936
2016-09-10T14:18:12.376Z,4928
2016-09-10T14:18:33.416Z,4932
2016-09-10T14:18:54.388Z,4924
2016-09-10T14:19:15.807Z,4920
2016-09-10T14:19:37.648Z,4904
2016-09-10T14:19:58.683Z,4908
2016-09-10T14:20:20.257Z,4900
2016-09-10T14:20:41.475Z,4896
2016-09-10T14:21:02.723Z,4892
2016-09-10T14:21:24.081Z,4876
2016-09-10T14:21:45.349Z,4868
2016-09-10T14:22:07.025Z,4856
2016-09-10T14:22:28.110Z,4852
2016-09-10T14:22:49.027Z,4836
2016-09-10T14:23:10.335Z,4824
2016-09-10T14:23:31.368Z,4812
2016-09-10T14:23:52.417Z,4800
2016-09-10T14:24:13.356Z,4792
2016-09-10T14:24:34.303Z,4788
2016-09-10T14:24:55.168Z,4780
2016-09-10T14:25:16.662Z,4760
2016-09-10T14:25:38.031Z,4768
2016-09-10T14:25:58.870Z,4764
2016-09-10T14:26:19.806Z,4764
2016-09-10T14:26:40.437Z,4760
2016-09-10T14:27:01.172Z,4756
2016-09-10T14:27:22.716Z,4752
2016-09-10T14:27:43.633Z,4744
2016-09-10T14:28:05.351Z,4744
2016-09-10T14:28:26.176Z,4740
2016-09-10T14:28:47.060Z,4732
2016-09-10T14:29:08.005Z,4732
2016-09-10T14:29:28.939Z,4724
2016-09-10T14:29:49.849Z,4712
2016-09-10T14:30:11.346Z,4708
2016-09-10T14:30:32.350Z,4700
2016-09-10T14:30:53.323Z,4692
2016-09-10T14:31:14.595Z,4688
2016-09-10T14:31:35.410Z,4676
2016-09-10T14:31:58.216Z,4672
2016-09-10T14:32:19.337Z,4664
2016-09-10T14:32:40.836Z,4652
2016-09-10T14:33:01.829Z,4640
2016-09-10T14:33:22.721Z,4628
2016-09-10T14:33:43.833Z,4632
2016-09-10T14:34:05.015Z,4624
2016-09-10T14:34:26.006Z,4612
2016-09-10T14:34:46.929Z,4604
2016-09-10T14:35:08.250Z,4588
2016-09-10T14:35:29.475Z,4572
2016-09-10T14:35:50.931Z,4564
2016-09-10T14:36:11.620Z,4552
2016-09-10T14:36:32.696Z,4544
2016-09-10T14:36:53.667Z,4536
2016-09-10T14:37:14.574Z,4520
2016-09-10T14:37:35.606Z,4516
2016-09-10T14:37:57.251Z,4504
2016-09-10T14:38:18.412Z,4496
2016-09-10T14:38:39.854Z,4484
2016-09-10T14:39:00.844Z,4472
2016-09-10T14:39:22.207Z,4460
2016-09-10T14:39:43.245Z,4456
2016-09-10T14:40:04.547Z,4440
2016-09-10T14:40:25.461Z,4432
2016-09-10T14:40:46.717Z,4424
2016-09-10T14:41:07.819Z,4412
2016-09-10T14:41:29.848Z,4408
2016-09-10T14:41:50.804Z,4400
2016-09-10T14:42:12.237Z,4392
2016-09-10T14:42:33.512Z,4388
2016-09-10T14:42:54.453Z,4380
2016-09-10T14:43:15.549Z,4368
2016-09-10T14:43:36.791Z,4372
2016-09-10T14:43:58.213Z,4368
2016-09-10T14:44:19.270Z,4364
2016-09-10T14:44:40.039Z,4360
2016-09-10T14:45:01.122Z,4348
2016-09-10T14:45:22.211Z,4340
2016-09-10T14:45:43.137Z,4340
2016-09-10T14:46:03.990Z,4328
2016-09-10T14:46:25.038Z,4324
2016-09-10T14:46:46.227Z,4316
2016-09-10T14:47:07.532Z,4320
2016-09-10T14:47:28.338Z,4312
2016-09-10T14:47:49.288Z,4308
2016-09-10T14:48:10.551Z,4312
2016-09-10T14:48:31.774Z,4312
2016-09-10T14:48:52.586Z,4312
2016-09-10T14:49:13.454Z,4308
2016-09-10T14:49:34.287Z,4304
2016-09-10T14:49:55.376Z,4304
2016-09-10T14:50:16.127Z,4300
2016-09-10T14:50:37.226Z,4292
2016-09-10T14:50:58.308Z,4296
2016-09-10T14:51:19.455Z,4296
2016-09-10T14:51:40.327Z,4292
2016-09-10T14:52:01.565Z,4276
2016-09-10T14:52:22.766Z,4272
2016-09-10T14:52:43.929Z,4256
2016-09-10T14:53:05.929Z,4248
2016-09-10T14:53:26.991Z,4240
2016-09-10T14:53:47.793Z,4232
2016-09-10T14:54:09.148Z,4228
2016-09-10T14:54:30.635Z,4220
2016-09-10T14:54:51.659Z,4220
2016-09-10T14:55:12.883Z,4220
2016-09-10T14:55:33.922Z,4212
2016-09-10T14:55:54.933Z,4208
2016-09-10T14:56:15.871Z,4204
2016-09-10T14:56:36.863Z,4200
2016-09-10T14:56:57.658Z,4196
2016-09-10T14:57:18.626Z,4192
2016-09-10T14:57:39.590Z,4192
2016-09-10T14:58:01.054Z,4184
2016-09-10T14:58:22.167Z,4176
2016-09-10T14:58:43.101Z,4172
2016-09-10T14:59:04.384Z,4168
2016-09-10T14:59:25.465Z,4164
2016-09-10T14:59:46.844Z,4156
2016-09-10T15:00:08.926Z,4148
2016-09-10T15:00:29.973Z,4140
2016-09-10T15:00:50.933Z,4132
2016-09-10T15:01:11.945Z,4128
2016-09-10T15:01:33.325Z,4112
2016-09-10T15:01:54.437Z,4096
2016-09-10T15:02:16.516Z,4088
2016-09-10T15:02:37.617Z,4076
2016-09-10T15:02:58.701Z,4068
2016-09-10T15:03:19.892Z,4052
2016-09-10T15:03:40.813Z,4044
2016-09-10T15:04:01.992Z,4036
2016-09-10T15:04:23.176Z,4028
2016-09-10T15:04:44.040Z,4020
2016-09-10T15:05:05.070Z,4008
2016-09-10T15:05:26.077Z,4004
2016-09-10T15:05:47.031Z,3996
2016-09-10T15:06:12.149Z,3988
2016-09-10T15:06:34.456Z,3972
2016-09-10T15:06:55.357Z,3968
2016-09-10T15:07:16.407Z,3956
2016-09-10T15:07:37.615Z,3952
2016-09-10T15:07:58.620Z,3940
2016-09-10T15:08:19.850Z,3928
2016-09-10T15:08:40.821Z,3920
2016-09-10T15:09:01.957Z,3908
2016-09-10T15:09:23.149Z,3892
2016-09-10T15:09:44.259Z,3880
2016-09-10T15:10:05.094Z,3868
2016-09-10T15:10:26.103Z,3860
2016-09-10T15:10:47.082Z,3856
2016-09-10T15:11:08.161Z,3848
2016-09-10T15:11:29.081Z,3840
2016-09-10T15:11:50.087Z,3836
2016-09-10T15:12:10.879Z,3828
2016-09-10T15:12:31.831Z,3824
2016-09-10T15:12:52.871Z,3816
2016-09-10T15:13:13.892Z,3816
2016-09-10T15:13:35.360Z,3804
2016-09-10T15:13:56.476Z,3800
2016-09-10T15:14:17.511Z,3800
2016-09-10T15:14:38.537Z,3784
2016-09-10T15:15:00.593Z,3780
2016-09-10T15:15:22.277Z,3772
2016-09-10T15:15:43.279Z,3760
2016-09-10T15:16:04.315Z,3752
2016-09-10T15:16:25.230Z,3748
2016-09-10T15:16:46.145Z,3740
2016-09-10T15:17:07.246Z,3728
2016-09-10T15:17:28.045Z,3720
2016-09-10T15:17:49.070Z,3716
2016-09-10T15:18:09.819Z,3716
2016-09-10T15:18:30.774Z,3720
2016-09-10T15:18:51.756Z,3720
2016-09-10T15:19:12.709Z,3716
2016-09-10T15:19:33.531Z,3716
2016-09-10T15:19:54.331Z,3708
2016-09-10T15:20:15.165Z,3700
2016-09-10T15:20:37.129Z,3696
2016-09-10T15:20:57.878Z,3688
2016-09-10T15:21:18.893Z,3676
2016-09-10T15:21:39.599Z,3672
2016-09-10T15:22:00.559Z,3668
2016-09-10T15:22:21.352Z,3668
2016-09-10T15:22:42.039Z,3664
2016-09-10T15:23:03.135Z,3652
2016-09-10T15:23:23.861Z,3648
2016-09-10T15:23:44.666Z,3636
2016-09-10T15:24:06.626Z,3628
2016-09-10T15:24:27.373Z,3624
2016-09-10T15:24:48.127Z,3624
2016-09-10T15:25:09.050Z,3612
2016-09-10T15:25:30.255Z,3604
2016-09-10T15:25:51.203Z,3600
2016-09-10T15:26:11.969Z,3600
2016-09-10T15:26:32.687Z,3592
2016-09-10T15:26:53.493Z,3592
2016-09-10T15:27:14.333Z,3592
2016-09-10T15:27:35.292Z,3588
2016-09-10T15:27:56.018Z,3588
2016-09-10T15:28:17.058Z,3592
2016-09-10T15:28:38.027Z,3592
2016-09-10T15:28:59.010Z,3592
2016-09-10T15:29:20.158Z,3592
2016-09-10T15:29:41.258Z,3588
2016-09-10T15:30:02.190Z,3592
2016-09-10T15:30:23.301Z,3588
2016-09-10T15:30:44.038Z,3584
2016-09-10T15:31:04.863Z,3580
2016-09-10T15:31:25.641Z,3572
2016-09-10T15:31:46.664Z,3564
2016-09-10T15:32:07.959Z,3552
2016-09-10T15:32:28.784Z,3544
2016-09-10T15:32:49.679Z,3532
2016-09-10T15:33:11.058Z,3524
2016-09-10T15:33:31.852Z,3520
2016-09-10T15:33:52.579Z,3512
2016-09-10T15:34:14.051Z,3516
2016-09-10T15:34:34.793Z,3512
2016-09-10T15:34:55.594Z,3512
2016-09-10T15:35:16.598Z,3508
2016-09-10T15:35:38.413Z,3512
2016-09-10T15:35:59.342Z,3508
2016-09-10T15:36:20.368Z,3512
2016-09-10T15:36:41.321Z,3508
2016-09-10T15:37:02.043Z,3500
2016-09-10T15:37:23.093Z,3496
2016-09-10T15:37:44.220Z,3492
2016-09-10T15:38:04.933Z,3484
2016-09-10T15:38:25.697Z,3468
2016-09-10T15:38:46.511Z,3460
2016-09-10T15:39:07.322Z,3448
2016-09-10T15:39:28.329Z,3436
2016-09-10T15:39:49.146Z,3416
2016-09-10T15:40:10.136Z,3408
2016-09-10T15:40:31.257Z,3400
2016-09-10T15:40:52.198Z,3384
2016-09-10T15:41:13.000Z,3372
2016-09-10T15:41:33.742Z,3360
2016-09-10T15:41:54.620Z,3348
2016-09-10T15:42:15.761Z,3340
2016-09-10T15:42:36.483Z,3332
2016-09-10T15:42:57.238Z,3320
2016-09-10T15:43:18.215Z,3312
2016-09-10T15:43:39.193Z,3300
2016-09-10T15:43:59.873Z,3288
2016-09-10T15:44:20.841Z,3280
2016-09-10T15:44:41.726Z,3272
2016-09-10T15:45:02.861Z,3260
2016-09-10T15:45:23.720Z,3248
2016-09-10T15:45:44.797Z,3240
2016-09-10T15:46:05.519Z,3228
2016-09-10T15:46:26.296Z,3216
2016-09-10T15:46:47.186Z,3204
2016-09-10T15:47:08.125Z,3196
2016-09-10T15:47:29.017Z,3184
2016-09-10T15:47:49.807Z,3172
2016-09-10T15:48:10.830Z,3156
2016-09-10T15:48:31.576Z,3140
2016-09-10T15:48:52.715Z,3116
2016-09-10T15:49:13.508Z,3100
2016-09-10T15:49:34.415Z,3084
2016-09-10T15:49:55.660Z,3068
2016-09-10T15:50:17.865Z,3064
2016-09-10T15:50:38.575Z,3072
2016-09-10T15:50:59.518Z,3076
2016-09-10T15:51:20.389Z,3092
2016-09-10T15:51:41.229Z,3092
2016-09-10T15:52:02.244Z,3092
2016-09-10T15:52:23.135Z,3084
2016-09-10T15:52:44.016Z,3076
2016-09-10T15:53:04.847Z,3056
2016-09-10T15:53:25.854Z,3032
2016-09-10T15:53:47.805Z,3004
2016-09-10T15:54:09.831Z,2980
2016-09-10T15:54:30.776Z,2952
2016-09-10T15:54:51.596Z,2936
2016-09-10T15:55:12.914Z,2924
2016-09-10T15:55:33.692Z,2932
2016-09-10T15:55:54.591Z,2936
2016-09-10T15:56:15.873Z,2936
2016-09-10T15:56:36.993Z,2936
2016-09-10T15:56:57.858Z,2940
2016-09-10T15:57:18.749Z,2932
2016-09-10T15:57:39.783Z,2920
2016-09-10T15:58:00.770Z,2924
2016-09-10T15:58:21.615Z,2932
2016-09-10T15:58:42.992Z,2928
2016-09-10T15:59:04.030Z,2920
2016-09-10T15:59:24.925Z,2928
2016-09-10T15:59:45.901Z,2900
2016-09-10T16:00:07.791Z,2904
2016-09-10T16:00:28.621Z,2892
2016-09-10T16:00:49.553Z,2884
2016-09-10T16:01:10.518Z,2876
2016-09-10T16:01:31.475Z,2868
2016-09-10T16:01:52.390Z,2832
2016-09-10T16:02:13.603Z,2848
2016-09-10T16:02:34.384Z,2836
2016-09-10T16:02:55.237Z,2816
2016-09-10T16:03:16.452Z,2796
2016-09-10T16:03:37.235Z,2776
2016-09-10T16:03:58.061Z,2756
2016-09-10T16:04:19.341Z,2736
2016-09-10T16:04:40.208Z,2720
2016-09-10T16:05:01.179Z,2704
2016-09-10T16:05:22.396Z,2688
2016-09-10T16:05:43.182Z,2672
2016-09-10T16:06:04.158Z,2668
2016-09-10T16:06:25.051Z,2660
2016-09-10T16:06:45.958Z,2648
2016-09-10T16:07:06.841Z,2640
2016-09-10T16:07:27.784Z,2636
2016-09-10T16:07:48.697Z,2632
2016-09-10T16:08:09.614Z,2628
2016-09-10T16:08:30.868Z,2628
2016-09-10T16:08:51.638Z,2624
2016-09-10T16:09:12.709Z,2624
2016-09-10T16:09:33.781Z,2624
2016-09-10T16:09:54.676Z,2616
2016-09-10T16:10:15.603Z,2608
2016-09-10T16:10:36.463Z,2604
2016-09-10T16:10:57.361Z,2592
2016-09-10T16:11:18.294Z,2584
2016-09-10T16:11:39.198Z,2576
2016-09-10T16:11:59.964Z,2564
2016-09-10T16:12:20.834Z,2552
2016-09-10T16:12:41.539Z,2540
2016-09-10T16:13:02.431Z,2532
2016-09-10T16:13:23.186Z,2520
2016-09-10T16:13:44.229Z,2512
2016-09-10T16:14:05.148Z,2508
2016-09-10T16:14:25.950Z,2496
2016-09-10T16:14:46.691Z,2492
2016-09-10T16:15:07.640Z,2484
2016-09-10T16:15:28.444Z,2480
2016-09-10T16:15:49.243Z,2472
2016-09-10T16:16:10.258Z,2464
2016-09-10T16:16:30.897Z,2456
2016-09-10T16:16:51.716Z,2452
2016-09-10T16:17:12.579Z,2444
2016-09-10T16:17:33.519Z,2436
2016-09-10T16:17:54.390Z,2428
2016-09-10T16:18:15.289Z,2420
2016-09-10T16:18:36.020Z,2404
2016-09-10T16:18:56.784Z,2396
2016-09-10T16:19:17.653Z,2384
2016-09-10T16:19:38.396Z,2376
2016-09-10T16:19:59.228Z,2360
2016-09-10T16:20:21.109Z,2352
2016-09-10T16:20:42.015Z,2340
2016-09-10T16:21:02.927Z,2328
2016-09-10T16:21:23.812Z,2320
2016-09-10T16:21:44.527Z,2312
2016-09-10T16:22:05.370Z,2300
2016-09-10T16:22:26.171Z,2292
2016-09-10T16:22:47.009Z,2284
2016-09-10T16:23:07.786Z,2276
2016-09-10T16:23:28.474Z,2268
2016-09-10T16:23:49.337Z,2256
2016-09-10T16:24:10.187Z,2248
2016-09-10T16:24:31.175Z,2236
2016-09-10T16:24:52.179Z,2228
2016-09-10T16:25:13.368Z,2216
2016-09-10T16:25:34.324Z,2204
2016-09-10T16:25:55.115Z,2192
2016-09-10T16:26:16.067Z,2184
2016-09-10T16:26:37.005Z,2168
2016-09-10T16:26:57.947Z,2160
2016-09-10T16:27:18.884Z,2148
2016-09-10T16:27:39.753Z,2136
2016-09-10T16:28:00.612Z,2124
2016-09-10T16:28:21.427Z,2116
2016-09-10T16:28:42.497Z,2108
2016-09-10T16:29:03.353Z,2096
2016-09-10T16:29:24.818Z,2084
2016-09-10T16:29:45.913Z,2076
2016-09-10T16:30:07.766Z,2064
2016-09-10T16:30:28.747Z,2056
2016-09-10T16:30:49.553Z,2044
2016-09-10T16:31:10.352Z,2036
2016-09-10T16:31:31.063Z,2028
2016-09-10T16:31:51.846Z,2016
2016-09-10T16:32:12.771Z,2008
2016-09-10T16:32:33.744Z,1992
2016-09-10T16:32:54.726Z,1984
2016-09-10T16:33:15.747Z,1968
2016-09-10T16:33:37.234Z,1956
2016-09-10T16:33:58.018Z,1944
2016-09-10T16:34:19.080Z,1932
2016-09-10T16:34:39.914Z,1916
2016-09-10T16:35:00.761Z,1904
2016-09-10T16:35:21.657Z,1896
2016-09-10T16:35:42.525Z,1884
2016-09-10T16:36:03.485Z,1868
2016-09-10T16:36:24.327Z,1860
2016-09-10T16:36:45.164Z,1848
2016-09-10T16:37:06.017Z,1836
2016-09-10T16:37:26.827Z,1824
2016-09-10T16:37:47.727Z,1816
2016-09-10T16:38:08.639Z,1800
2016-09-10T16:38:30.041Z,1788
2016-09-10T16:38:50.897Z,1776
2016-09-10T16:39:11.969Z,1764
2016-09-10T16:39:32.859Z,1752
2016-09-10T16:39:53.604Z,1740
2016-09-10T16:40:15.673Z,1728
2016-09-10T16:40:37.160Z,1712
2016-09-10T16:40:57.946Z,1700
2016-09-10T16:41:19.394Z,1684
2016-09-10T16:41:40.248Z,1676
2016-09-10T16:42:01.058Z,1660
2016-09-10T16:42:21.875Z,1648
2016-09-10T16:42:42.964Z,1636
2016-09-10T16:43:04.167Z,1624
2016-09-10T16:43:25.137Z,1612
2016-09-10T16:43:45.968Z,1600
2016-09-10T16:44:06.669Z,1588
2016-09-10T16:44:27.435Z,1572
2016-09-10T16:44:49.163Z,1560
2016-09-10T16:45:10.228Z,1544
2016-09-10T16:45:31.019Z,1532
2016-09-10T16:45:51.853Z,1520
2016-09-10T16:46:12.898Z,1508
2016-09-10T16:46:33.746Z,1496
2016-09-10T16:46:54.458Z,1480
2016-09-10T16:47:15.432Z,1468
2016-09-10T16:47:36.159Z,1456
2016-09-10T16:47:57.211Z,1444
2016-09-10T16:48:18.025Z,1436
2016-09-10T16:48:39.514Z,1420
2016-09-10T16:49:00.274Z,1408
2016-09-10T16:49:21.040Z,1400
2016-09-10T16:49:41.916Z,1384
2016-09-10T16:50:03.205Z,1372
2016-09-10T16:50:24.096Z,1364
2016-09-10T16:50:45.111Z,1352
2016-09-10T16:51:06.041Z,1340
2016-09-10T16:51:26.988Z,1324
2016-09-10T16:51:47.787Z,1312
2016-09-10T16:52:08.513Z,1300
2016-09-10T16:52:29.440Z,1292
2016-09-10T16:52:50.455Z,1276
2016-09-10T16:53:11.207Z,1268
2016-09-10T16:53:32.162Z,1256
2016-09-10T16:53:52.896Z,1240
2016-09-10T16:54:13.585Z,1228
2016-09-10T16:54:34.366Z,1216
2016-09-10T16:54:55.082Z,1204
2016-09-10T16:55:15.911Z,1192
2016-09-10T16:55:36.707Z,1176
2016-09-10T16:55:57.573Z,1164
2016-09-10T16:56:18.323Z,1152
2016-09-10T16:56:39.234Z,1136
2016-09-10T16:56:59.928Z,1128
2016-09-10T16:57:20.771Z,1112
2016-09-10T16:57:41.886Z,1100
2016-09-10T16:58:02.849Z,1084
2016-09-10T16:58:23.858Z,1076
2016-09-10T16:58:44.627Z,1060
2016-09-10T16:59:05.374Z,1048
2016-09-10T16:59:26.445Z,1036
2016-09-10T16:59:47.132Z,1020
2016-09-10T17:00:08.110Z,1012
2016-09-10T17:00:28.929Z,1000
2016-09-10T17:00:49.641Z,988
2016-09-10T17:01:10.339Z,972
2016-09-10T17:01:31.118Z,960
2016-09-10T17:01:51.790Z,948
2016-09-10T17:02:12.488Z,940
2016-09-10T17:02:33.382Z,928
2016-09-10T17:02:54.383Z,916
2016-09-10T17:03:15.169Z,904
2016-09-10T17:03:35.902Z,892
2016-09-10T17:03:56.733Z,880
2016-09-10T17:04:17.563Z,868
2016-09-10T17:04:38.431Z,856
2016-09-10T17:04:59.295Z,848
2016-09-10T17:05:21.347Z,832
2016-09-10T17:05:42.128Z,820
2016-09-10T17:06:03.792Z,808
2016-09-10T17:06:24.535Z,800
2016-09-10T17:06:45.202Z,788
2016-09-10T17:07:06.326Z,772
2016-09-10T17:07:27.114Z,760
2016-09-10T17:07:47.886Z,752
2016-09-10T17:08:08.842Z,736
2016-09-10T17:08:29.579Z,724
2016-09-10T17:08:50.439Z,712
2016-09-10T17:09:11.221Z,704
2016-09-10T17:09:32.790Z,688
2016-09-10T17:09:53.712Z,676
2016-09-10T17:10:15.372Z,664
2016-09-10T17:10:36.339Z,652
2016-09-10T17:10:57.228Z,636
2016-09-10T17:11:18.089Z,624
2016-09-10T17:11:38.777Z,616
2016-09-10T17:11:59.528Z,600
2016-09-10T17:12:20.454Z,592
2016-09-10T17:12:41.213Z,580
2016-09-10T17:13:02.066Z,568
2016-09-10T17:13:23.382Z,556
2016-09-10T17:13:44.063Z,544
2016-09-10T17:14:05.321Z,532
2016-09-10T17:14:26.267Z,524
2016-09-10T17:14:47.058Z,516
2016-09-10T17:15:08.090Z,508
2016-09-10T17:15:28.813Z,500
2016-09-10T17:15:49.535Z,492
2016-09-10T17:16:10.186Z,480
2016-09-10T17:16:30.910Z,472
2016-09-10T17:16:51.583Z,464
2016-09-10T17:17:12.870Z,460
2016-09-10T17:17:33.561Z,448
2016-09-10T17:17:54.276Z,440
2016-09-10T17:18:15.114Z,428
2016-09-10T17:18:36.072Z,420
2016-09-10T17:18:56.795Z,412
2016-09-10T17:19:17.795Z,404
2016-09-10T17:19:38.619Z,396
2016-09-10T17:19:59.424Z,388
2016-09-10T17:20:21.378Z,376
2016-09-10T17:20:42.188Z,368
2016-09-10T17:21:03.136Z,360
2016-09-10T17:21:23.950Z,352
2016-09-10T17:21:44.710Z,340
2016-09-10T17:22:05.886Z,332
2016-09-10T17:22:26.643Z,324
2016-09-10T17:22:47.257Z,320
2016-09-10T17:23:08.102Z,312
2016-09-10T17:23:28.774Z,304
2016-09-10T17:23:49.671Z,296
2016-09-10T17:24:10.519Z,288
2016-09-10T17:24:31.437Z,280
2016-09-10T17:24:52.303Z,276
2016-09-10T17:25:13.495Z,264
2016-09-10T17:25:34.246Z,260
2016-09-10T17:25:54.981Z,252
2016-09-10T17:26:16.235Z,244
2016-09-10T17:26:37.180Z,236
2016-09-10T17:26:58.112Z,232
2016-09-10T17:27:19.259Z,224
2016-09-10T17:27:40.254Z,216
2016-09-10T17:28:00.993Z,212
2016-09-10T17:28:21.793Z,204
2016-09-10T17:28:42.533Z,196
2016-09-10T17:29:03.599Z,192
2016-09-10T17:29:24.310Z,188
2016-09-10T17:29:45.278Z,180
2016-09-10T17:30:06.076Z,172
2016-09-10T17:30:26.791Z,168
2016-09-10T17:30:47.479Z,164
2016-09-10T17:31:08.410Z,156
2016-09-10T17:31:29.230Z,152
2016-09-10T17:31:58.248Z,144
2016-09-10T17:32:19.173Z,140
2016-09-10T17:32:41.869Z,132
2016-09-10T17:33:02.833Z,128
2016-09-10T17:33:23.824Z,124
2016-09-10T17:33:45.280Z,120
2016-09-10T17:34:05.986Z,116
2016-09-10T17:34:26.716Z,112
2016-09-10T17:34:47.432Z,108
2016-09-10T17:35:08.531Z,104
2016-09-10T17:35:29.264Z,96
2016-09-10T17:35:49.906Z,92
2016-09-10T17:36:10.658Z,92
2016-09-10T17:36:31.808Z,88
2016-09-10T17:36:52.591Z,84
2016-09-10T17:37:13.649Z,80
2016-09-10T17:37:34.369Z,76
2016-09-10T17:37:55.043Z,72
2016-09-10T17:38:16.012Z,68
2016-09-10T17:38:36.757Z,64
2016-09-10T17:38:57.652Z,60
2016-09-10T17:39:18.264Z,60
2016-09-10T17:39:38.882Z,56
2016-09-10T17:39:59.656Z,56
2016-09-10T17:40:20.717Z,52
2016-09-10T17:40:41.428Z,48
2016-09-10T17:41:02.178Z,48
2016-09-10T17:41:23.094Z,44
2016-09-10T17:41:43.898Z,40
2016-09-10T17:42:05.310Z,40
2016-09-10T17:42:26.056Z,36
2016-09-10T17:42:46.874Z,32
2016-09-10T17:43:07.965Z,32
2016-09-10T17:43:28.749Z,28
2016-09-10T17:43:49.383Z,28
2016-09-10T17:44:09.997Z,28
2016-09-10T17:44:30.764Z,24
2016-09-10T17:44:51.795Z,24
2016-09-10T17:45:12.796Z,24
2016-09-10T17:45:33.519Z,24
2016-09-10T17:45:54.250Z,16
2016-09-10T17:46:15.082Z,16
2016-09-10T17:46:35.999Z,16
2016-09-10T17:46:56.931Z,16
2016-09-10T17:47:17.722Z,16
2016-09-10T17:47:38.406Z,16
2016-09-10T17:47:59.103Z,12
2016-09-10T17:48:20.157Z,12
2016-09-10T17:48:41.032Z,12
2016-09-10T17:49:02.271Z,12
2016-09-10T17:49:23.091Z,8
2016-09-10T17:49:43.800Z,8
2016-09-10T17:50:04.935Z,8
2016-09-10T17:50:25.655Z,8
2016-09-10T17:50:46.495Z,8
2016-09-10T17:51:07.232Z,8
2016-09-10T17:51:27.987Z,8
2016-09-10T17:51:48.840Z,8
2016-09-10T17:52:09.700Z,4
2016-09-10T17:52:30.453Z,4
2016-09-10T17:52:51.495Z,8
2016-09-10T17:53:12.294Z,8
2016-09-10T17:53:33.040Z,4
2016-09-10T17:53:53.834Z,4
2016-09-10T17:54:14.616Z,4
2016-09-10T17:54:35.508Z,4
2016-09-10T17:54:56.283Z,4
2016-09-10T17:55:18.052Z,0
2016-09-10T17:55:38.752Z,4
2016-09-10T17:55:59.452Z,4
2016-09-10T17:56:20.187Z,4
2016-09-10T17:56:40.856Z,4
2016-09-10T17:57:01.957Z,4
2016-09-10T17:57:22.695Z,4
2016-09-10T17:57:43.572Z,4
2016-09-10T17:58:04.266Z,4
2016-09-10T17:58:24.976Z,0
2016-09-10T17:58:45.692Z,0
2016-09-10T17:59:06.655Z,0
2016-09-10T17:59:27.517Z,0
2016-09-10T17:59:48.653Z,0
2016-09-10T18:00:09.517Z,0
2016-09-10T18:00:30.165Z,0
2016-09-10T18:00:50.800Z,0
2016-09-10T18:01:12.014Z,0
2016-09-10T18:01:32.795Z,0
2016-09-10T18:01:53.502Z,0
2016-09-10T18:02:14.409Z,0
2016-09-10T18:02:35.352Z,0
2016-09-10T18:02:55.982Z,0
2016-09-10T18:03:16.762Z,0
2016-09-10T18:03:37.601Z,0
2016-09-10T18:03:58.261Z,0
2016-09-10T18:04:19.064Z,0
2016-09-10T18:04:39.784Z,0
2016-09-10T18:05:00.587Z,0
2016-09-10T18:05:21.385Z,0
2016-09-10T18:05:42.163Z,0
2016-09-10T18:06:11.167Z,0
2016-09-10T18:06:35.546Z,0
2016-09-10T18:06:56.648Z,0
2016-09-10T18:07:17.479Z,0
2016-09-10T18:07:38.933Z,0
2016-09-10T18:07:59.756Z,0